createdAt,value
2018-12-19T00:00:48.517Z,10.82
2018-12-19T00:03:24.529Z,10.84
2018-12-19T00:05:59.122Z,10.81
2018-12-19T00:08:34.702Z,10.23
2018-12-19T00:11:12.689Z,10.90
2018-12-19T00:13:43.313Z,10.90
2018-12-19T00:16:18.254Z,11.01
2018-12-19T00:18:56.928Z,10.86
2018-12-19T00:21:30.756Z,11.14
2018-12-19T00:24:03.823Z,11.10
2018-12-19T00:26:36.593Z,11.02
2018-12-19T00:31:51.210Z,11.03
2018-12-19T00:34:32.992Z,11.20
2018-12-19T00:37:09.781Z,11.02
2018-12-19T00:39:43.582Z,11.11
2018-12-19T00:42:19.583Z,10.95
2018-12-19T00:44:53.784Z,10.91
2018-12-19T00:47:38.777Z,11.02
2018-12-19T00:50:15.041Z,11.06
2018-12-19T00:52:53.480Z,10.93
2018-12-19T00:55:31.356Z,10.89
2018-12-19T00:58:07.695Z,10.95
2018-12-19T01:00:44.734Z,11.03
2018-12-19T01:03:18.321Z,11.01
2018-12-19T01:05:54.912Z,11.04
2018-12-19T01:08:28.329Z,11.22
2018-12-19T01:10:59.621Z,11.23
2018-12-19T01:13:35.690Z,11.31
2018-12-19T01:16:08.949Z,11.51
2018-12-19T01:18:52.254Z,11.49
2018-12-19T01:21:26.116Z,11.00
2018-12-19T01:24:05.246Z,11.01
2018-12-19T01:26:40.671Z,11.01
2018-12-19T01:29:14.773Z,11.09
2018-12-19T01:31:47.884Z,11.26
2018-12-19T01:34:21.191Z,11.40
2018-12-19T01:36:55.831Z,11.53
2018-12-19T01:39:30.412Z,11.64
2018-12-19T01:42:08.243Z,11.73
2018-12-19T01:44:47.804Z,11.87
2018-12-19T01:47:22.595Z,11.86
2018-12-19T01:49:56.743Z,11.69
2018-12-19T01:52:31.577Z,11.58
2018-12-19T01:55:11.428Z,11.71
2018-12-19T01:57:47.358Z,11.85
2018-12-19T02:00:28.132Z,11.87
2018-12-19T02:05:55.810Z,11.80
2018-12-19T02:08:31.774Z,11.76
2018-12-19T02:11:06.261Z,11.73
2018-12-19T02:13:40.698Z,11.76
2018-12-19T02:16:13.502Z,11.88
2018-12-19T02:18:53.687Z,11.91
2018-12-19T02:21:29.274Z,11.91
2018-12-19T02:24:09.808Z,11.88
2018-12-19T02:26:47.617Z,11.91
2018-12-19T02:29:21.143Z,11.87
2018-12-19T02:31:58.153Z,11.92
2018-12-19T02:34:32.804Z,11.94
2018-12-19T02:37:11.301Z,11.81
2018-12-19T02:39:47.739Z,11.87
2018-12-19T02:42:21.608Z,11.79
2018-12-19T02:44:53.771Z,11.85
2018-12-19T02:47:30.673Z,11.95
2018-12-19T02:50:07.109Z,11.98
2018-12-19T02:52:42.683Z,11.71
2018-12-19T02:55:16.468Z,12.07
2018-12-19T02:57:52.415Z,12.07
2018-12-19T03:00:32.777Z,12.17
2018-12-19T03:03:03.009Z,12.12
2018-12-19T03:05:33.039Z,12.23
2018-12-19T03:08:02.560Z,12.17
2018-12-19T03:10:32.083Z,12.03
2018-12-19T03:13:01.876Z,12.10
2018-12-19T03:18:27.558Z,12.09
2018-12-19T03:20:58.277Z,11.96
2018-12-19T03:23:30.388Z,12.02
2018-12-19T03:26:01.560Z,11.89
2018-12-19T03:28:32.165Z,11.95
2018-12-19T03:31:02.846Z,12.12
2018-12-19T03:33:36.686Z,12.09
2018-12-19T03:36:06.464Z,12.05
2018-12-19T03:38:36.669Z,12.19
2018-12-19T03:41:08.249Z,12.30
2018-12-19T03:43:38.775Z,12.20
2018-12-19T03:46:09.354Z,12.03
2018-12-19T03:48:45.090Z,12.05
2018-12-19T03:51:14.804Z,12.10
2018-12-19T03:53:45.650Z,12.10
2018-12-19T03:56:16.317Z,12.04
2018-12-19T03:58:46.006Z,12.05
2018-12-19T04:01:16.193Z,12.14
2018-12-19T04:03:45.999Z,12.35
2018-12-19T04:06:16.813Z,12.30
2018-12-19T04:08:47.704Z,12.18
2018-12-19T04:11:18.266Z,12.04
2018-12-19T04:13:49.781Z,12.11
2018-12-19T04:16:20.029Z,12.10
2018-12-19T04:18:49.720Z,12.16
2018-12-19T04:21:21.106Z,12.21
2018-12-19T04:23:50.797Z,12.29
2018-12-19T04:26:20.606Z,12.28
2018-12-19T04:28:50.878Z,12.30
2018-12-19T04:31:20.721Z,12.29
2018-12-19T04:33:50.455Z,12.15
2018-12-19T04:36:20.441Z,12.13
2018-12-19T04:38:52.582Z,12.17
2018-12-19T04:41:24.109Z,12.15
2018-12-19T04:43:53.860Z,12.17
2018-12-19T04:46:23.727Z,12.30
2018-12-19T04:48:54.258Z,12.39
2018-12-19T04:51:24.587Z,12.54
2018-12-19T04:53:55.260Z,12.61
2018-12-19T04:56:25.429Z,12.75
2018-12-19T04:58:56.730Z,12.90
2018-12-19T05:01:27.102Z,12.99
2018-12-19T05:03:57.788Z,12.93
2018-12-19T05:06:29.383Z,12.98
2018-12-19T05:08:59.943Z,12.98
2018-12-19T05:11:30.368Z,13.11
2018-12-19T05:14:02.063Z,13.31
2018-12-19T05:16:33.187Z,13.34
2018-12-19T05:19:04.241Z,13.13
2018-12-19T05:21:35.086Z,13.01
2018-12-19T05:24:06.237Z,13.08
2018-12-19T05:26:38.171Z,13.12
2018-12-19T05:29:09.091Z,12.96
2018-12-19T05:31:42.318Z,12.91
2018-12-19T05:34:13.136Z,12.97
2018-12-19T05:36:45.554Z,12.91
2018-12-19T05:39:16.193Z,12.99
2018-12-19T05:41:46.782Z,12.83
2018-12-19T05:44:18.601Z,12.60
2018-12-19T05:46:49.146Z,12.43
2018-12-19T05:52:11.047Z,12.23
2018-12-19T05:54:44.087Z,12.43
2018-12-19T05:57:20.353Z,12.43
2018-12-19T05:59:52.288Z,12.32
2018-12-19T06:02:22.758Z,12.48
2018-12-19T06:04:53.459Z,12.57
2018-12-19T06:07:25.332Z,12.39
2018-12-19T06:09:57.716Z,12.23
2018-12-19T06:12:30.948Z,12.24
2018-12-19T06:15:04.527Z,12.51
2018-12-19T06:17:37.485Z,12.68
2018-12-19T06:20:09.027Z,12.67
2018-12-19T06:22:41.528Z,12.41
2018-12-19T06:25:13.858Z,12.17
2018-12-19T06:27:47.904Z,12.32
2018-12-19T06:33:13.472Z,12.32
2018-12-19T06:35:51.686Z,12.39
2018-12-19T06:38:43.332Z,12.34
2018-12-19T06:44:08.376Z,12.44
2018-12-19T06:46:44.172Z,12.47
2018-12-19T06:49:18.959Z,12.56
2018-12-19T06:52:01.846Z,12.71
2018-12-19T06:54:34.783Z,12.79
2018-12-19T06:57:09.706Z,12.67
2018-12-19T06:59:43.469Z,12.68
2018-12-19T07:02:19.704Z,12.70
2018-12-19T07:04:53.949Z,12.52
2018-12-19T07:07:34.593Z,12.60
2018-12-19T07:10:09.715Z,12.60
2018-12-19T07:12:41.537Z,12.63
2018-12-19T07:15:18.523Z,12.76
2018-12-19T07:17:53.603Z,12.82
2018-12-19T07:20:28.637Z,12.99
2018-12-19T07:23:01.968Z,13.08
2018-12-19T07:25:33.914Z,13.02
2018-12-19T07:30:41.259Z,12.94
2018-12-19T07:33:18.920Z,13.02
2018-12-19T07:35:50.587Z,13.14
2018-12-19T07:38:22.834Z,13.14
2018-12-19T07:40:56.600Z,12.88
2018-12-19T07:43:30.259Z,12.49
2018-12-19T07:46:02.217Z,12.47
2018-12-19T07:48:34.098Z,12.30
2018-12-19T07:51:04.628Z,12.07
2018-12-19T07:53:35.339Z,12.18
2018-12-19T07:56:07.043Z,11.95
2018-12-19T07:58:50.821Z,11.79
2018-12-19T08:04:26.509Z,12.17
2018-12-19T08:07:08.941Z,12.38
2018-12-19T08:09:41.430Z,12.35
2018-12-19T08:12:18.742Z,12.31
2018-12-19T08:14:51.714Z,12.46
2018-12-19T08:17:30.065Z,12.35
2018-12-19T08:20:01.535Z,12.38
2018-12-19T08:22:33.287Z,12.66
2018-12-19T08:25:06.571Z,12.64
2018-12-19T08:27:36.740Z,12.69
2018-12-19T08:30:13.384Z,12.50
2018-12-19T08:32:55.299Z,12.35
2018-12-19T08:35:30.757Z,12.41
2018-12-19T08:38:05.137Z,12.50
2018-12-19T08:40:38.795Z,12.33
2018-12-19T08:43:16.020Z,12.38
2018-12-19T08:45:48.435Z,12.33
2018-12-19T08:48:29.739Z,12.03
2018-12-19T08:51:05.082Z,12.21
2018-12-19T08:53:37.943Z,12.07
2018-12-19T08:56:12.358Z,12.33
2018-12-19T08:58:43.631Z,12.21
2018-12-19T09:01:15.353Z,12.07
2018-12-19T09:03:50.586Z,12.10
2018-12-19T09:06:27.251Z,12.50
2018-12-19T09:11:39.039Z,12.39
2018-12-19T09:14:11.537Z,12.60
2018-12-19T09:16:47.012Z,12.78
2018-12-19T09:19:17.684Z,12.68
2018-12-19T09:21:49.094Z,12.57
2018-12-19T09:24:20.799Z,13.04
2018-12-19T09:26:56.224Z,13.17
2018-12-19T09:29:32.445Z,13.10
2018-12-19T09:32:09.763Z,13.62
2018-12-19T09:34:42.787Z,13.79
2018-12-19T09:37:21.503Z,13.74
2018-12-19T09:42:48.842Z,13.36
2018-12-19T09:45:24.875Z,12.68
2018-12-19T09:47:56.282Z,13.58
2018-12-19T09:50:33.258Z,13.60
2018-12-19T09:53:19.774Z,13.61
2018-12-19T09:55:52.265Z,13.70
2018-12-19T09:58:22.686Z,13.92
2018-12-19T10:00:55.824Z,14.04
2018-12-19T10:03:27.489Z,14.09
2018-12-19T10:06:04.450Z,14.20
2018-12-19T10:08:37.674Z,14.40
2018-12-19T10:11:18.700Z,14.49
2018-12-19T10:13:49.891Z,14.64
2018-12-19T10:16:37.510Z,14.86
2018-12-19T10:19:12.578Z,15.01
2018-12-19T10:21:47.402Z,14.90
2018-12-19T10:24:18.872Z,14.77
2018-12-19T10:26:54.475Z,14.71
2018-12-19T10:29:27.070Z,14.41
2018-12-19T10:32:00.083Z,14.12
2018-12-19T10:34:34.461Z,13.91
2018-12-19T10:37:07.976Z,13.79
2018-12-19T10:39:40.352Z,13.49
2018-12-19T10:42:15.380Z,13.70
2018-12-19T10:44:47.254Z,13.48
2018-12-19T10:47:20.852Z,13.61
2018-12-19T10:49:53.404Z,13.71
2018-12-19T10:52:25.514Z,13.88
2018-12-19T10:54:57.297Z,13.87
2018-12-19T10:57:30.407Z,13.54
2018-12-19T11:00:05.167Z,13.28
2018-12-19T11:02:38.576Z,13.50
2018-12-19T11:05:10.027Z,13.80
2018-12-19T11:07:43.563Z,13.91
2018-12-19T11:10:15.865Z,13.79
2018-12-19T11:12:48.535Z,13.92
2018-12-19T11:15:20.906Z,13.96
2018-12-19T11:18:07.172Z,13.83
2018-12-19T11:20:47.497Z,13.99
2018-12-19T11:23:18.622Z,13.87
2018-12-19T11:25:49.657Z,13.78
2018-12-19T11:28:21.646Z,13.58
2018-12-19T11:30:54.630Z,13.72
2018-12-19T11:33:26.227Z,13.68
2018-12-19T11:35:58.024Z,13.69
2018-12-19T11:38:31.511Z,13.77
2018-12-19T11:41:04.398Z,13.65
2018-12-19T11:43:37.936Z,13.53
2018-12-19T11:46:10.059Z,13.58
2018-12-19T11:48:41.629Z,13.63
2018-12-19T11:51:16.425Z,13.68
2018-12-19T11:56:20.972Z,13.58
2018-12-19T11:58:58.273Z,13.89
2018-12-19T12:01:41.172Z,14.24
2018-12-19T12:04:17.347Z,14.75
2018-12-19T12:06:59.295Z,14.52
2018-12-19T12:09:33.136Z,14.71
2018-12-19T12:12:09.196Z,14.43
2018-12-19T12:14:49.215Z,14.25
2018-12-19T12:17:24.867Z,14.21
2018-12-19T12:20:03.780Z,14.31
2018-12-19T12:22:38.452Z,14.43
2018-12-19T12:25:11.126Z,14.54
2018-12-19T12:27:46.991Z,14.53
2018-12-19T12:30:22.840Z,14.67
2018-12-19T12:33:05.021Z,14.96
2018-12-19T12:35:44.111Z,15.04
2018-12-19T12:38:22.848Z,15.09
2018-12-19T12:40:57.151Z,15.21
2018-12-19T12:43:33.679Z,15.40
2018-12-19T12:46:15.619Z,15.51
2018-12-19T12:48:56.359Z,15.46
2018-12-19T12:51:37.883Z,15.74
2018-12-19T12:54:17.907Z,15.61
2018-12-19T12:56:50.789Z,15.42
2018-12-19T12:59:29.326Z,15.27
2018-12-19T13:02:05.393Z,15.65
2018-12-19T13:04:43.706Z,15.92
2018-12-19T13:07:18.227Z,15.94
2018-12-19T13:09:52.358Z,15.64
2018-12-19T13:12:27.885Z,15.58
2018-12-19T13:15:05.982Z,15.61
2018-12-19T13:17:42.415Z,15.94
2018-12-19T13:20:23.616Z,15.78
2018-12-19T13:22:59.290Z,15.66
2018-12-19T13:25:31.959Z,15.79
2018-12-19T13:28:11.556Z,15.85
2018-12-19T13:30:48.568Z,16.01
2018-12-19T13:33:21.355Z,16.02
2018-12-19T13:35:57.096Z,16.18
2018-12-19T13:38:33.725Z,16.25
2018-12-19T13:41:10.749Z,16.31
2018-12-19T13:43:49.325Z,16.34
2018-12-19T13:46:27.571Z,16.16
2018-12-19T13:49:06.448Z,15.73
2018-12-19T13:51:44.338Z,16.03
2018-12-19T13:54:24.773Z,15.91
2018-12-19T13:56:59.229Z,15.70
2018-12-19T13:59:37.026Z,15.34
2018-12-19T14:02:13.944Z,15.23
2018-12-19T14:04:49.339Z,15.25
2018-12-19T14:07:22.072Z,15.31
2018-12-19T14:09:58.118Z,15.22
2018-12-19T14:12:34.774Z,15.12
2018-12-19T14:15:16.304Z,15.15
2018-12-19T14:17:50.479Z,15.00
2018-12-19T14:20:30.431Z,15.25
2018-12-19T14:23:07.192Z,15.24
2018-12-19T14:25:43.833Z,15.09
2018-12-19T14:28:17.207Z,14.93
2018-12-19T14:30:56.363Z,14.91
2018-12-19T14:33:30.752Z,14.98
2018-12-19T14:36:09.913Z,14.92
2018-12-19T14:38:46.459Z,14.94
2018-12-19T14:41:24.586Z,14.86
2018-12-19T14:44:06.543Z,14.88
2018-12-19T14:46:53.215Z,14.97
2018-12-19T14:49:26.612Z,14.96
2018-12-19T14:52:05.966Z,14.79
2018-12-19T14:54:43.426Z,14.56
2018-12-19T14:57:18.440Z,14.45
2018-12-19T14:59:53.462Z,14.34
2018-12-19T15:02:37.877Z,14.40
2018-12-19T15:11:36.974Z,15.04
2018-12-19T15:14:13.747Z,15.07
2018-12-19T15:16:51.140Z,15.05
2018-12-19T15:19:28.713Z,15.01
2018-12-19T15:22:11.499Z,14.83
2018-12-19T15:24:47.824Z,14.84
2018-12-19T15:27:23.878Z,14.87
2018-12-19T15:29:59.655Z,14.76
2018-12-19T15:32:33.367Z,14.70
2018-12-19T15:35:15.600Z,14.86
2018-12-19T15:37:52.931Z,14.72
2018-12-19T15:40:27.570Z,14.66
2018-12-19T15:43:07.552Z,14.60
2018-12-19T15:45:45.281Z,14.57
2018-12-19T15:48:20.485Z,14.33
2018-12-19T15:51:01.108Z,14.38
2018-12-19T15:53:36.875Z,14.36
2018-12-19T15:56:16.271Z,14.25
2018-12-19T15:58:51.172Z,14.41
2018-12-19T16:01:29.644Z,14.48
2018-12-19T16:04:03.740Z,14.65
2018-12-19T16:06:42.655Z,14.58
2018-12-19T16:09:16.868Z,14.33
2018-12-19T16:11:54.427Z,14.52
2018-12-19T16:14:30.176Z,14.62
2018-12-19T16:17:05.853Z,14.53
2018-12-19T16:19:39.849Z,14.75
2018-12-19T16:22:19.230Z,14.92
2018-12-19T16:25:00.089Z,14.99
2018-12-19T16:27:37.469Z,14.91
2018-12-19T16:32:56.488Z,15.15
2018-12-19T16:35:31.403Z,15.34
2018-12-19T16:38:08.307Z,15.33
2018-12-19T16:40:47.977Z,15.25
2018-12-19T16:43:24.231Z,15.23
2018-12-19T16:46:00.025Z,15.12
2018-12-19T16:48:37.844Z,15.15
2018-12-19T16:51:12.076Z,15.38
2018-12-19T16:53:49.437Z,15.54
2018-12-19T16:56:30.094Z,15.53
2018-12-19T16:59:06.605Z,15.52
2018-12-19T17:01:43.277Z,15.56
2018-12-19T17:04:21.535Z,15.56
2018-12-19T17:07:03.759Z,15.35
2018-12-19T17:09:39.973Z,15.12
2018-12-19T17:12:24.608Z,14.99
2018-12-19T17:15:06.310Z,14.82
2018-12-19T17:17:39.460Z,14.61
2018-12-19T17:20:24.705Z,14.51
2018-12-19T17:23:01.621Z,14.28
2018-12-19T17:25:39.755Z,14.04
2018-12-19T17:28:13.335Z,13.85
2018-12-19T17:30:52.812Z,13.75
2018-12-19T17:33:30.250Z,13.70
2018-12-19T17:36:12.513Z,13.57
2018-12-19T17:38:52.840Z,13.42
2018-12-19T17:41:28.349Z,13.37
2018-12-19T17:44:04.835Z,13.49
2018-12-19T17:46:45.600Z,13.73
2018-12-19T17:49:21.411Z,13.94
2018-12-19T17:51:56.488Z,14.32
2018-12-19T17:54:32.716Z,14.24
2018-12-19T17:57:13.256Z,14.59
2018-12-19T17:59:49.553Z,14.57
2018-12-19T18:02:23.239Z,14.73
2018-12-19T18:04:59.052Z,14.84
2018-12-19T18:07:37.761Z,14.77
2018-12-19T18:10:12.278Z,14.88
2018-12-19T18:12:53.271Z,14.85
2018-12-19T18:15:29.215Z,14.84
2018-12-19T18:18:09.189Z,14.86
2018-12-19T18:20:42.631Z,14.83
2018-12-19T18:23:20.088Z,14.95
2018-12-19T18:25:59.783Z,14.96
2018-12-19T18:28:36.962Z,14.93
2018-12-19T18:31:10.423Z,14.81
2018-12-19T18:33:50.674Z,14.90
2018-12-19T18:36:30.247Z,15.00
2018-12-19T18:39:08.765Z,15.06
2018-12-19T18:41:42.245Z,15.23
2018-12-19T18:44:21.597Z,15.34
2018-12-19T18:46:57.249Z,15.23
2018-12-19T18:49:37.730Z,15.30
2018-12-19T18:52:16.375Z,15.19
2018-12-19T18:54:51.591Z,15.29
2018-12-19T18:57:25.564Z,15.29
2018-12-19T19:00:01.634Z,15.27
2018-12-19T19:02:39.319Z,15.23
2018-12-19T19:05:22.392Z,15.16
2018-12-19T19:07:56.431Z,15.02
2018-12-19T19:10:36.358Z,14.94
2018-12-19T19:15:56.870Z,14.29
2018-12-19T19:18:42.066Z,14.97
2018-12-19T19:21:22.906Z,15.10
2018-12-19T19:24:04.689Z,15.34
2018-12-19T19:26:41.563Z,15.40
2018-12-19T19:29:23.107Z,15.38
2018-12-19T19:32:04.374Z,15.50
2018-12-19T19:34:40.613Z,15.49
2018-12-19T19:37:15.640Z,15.48
2018-12-19T19:39:52.218Z,15.41
2018-12-19T19:42:27.425Z,15.26
2018-12-19T19:45:08.113Z,15.23
2018-12-19T19:47:46.296Z,15.46
2018-12-19T19:50:24.671Z,15.70
2018-12-19T19:53:02.530Z,15.66
2018-12-19T19:55:41.449Z,15.46
2018-12-19T19:58:17.490Z,15.42
2018-12-19T20:00:50.516Z,15.56
2018-12-19T20:03:31.505Z,15.55
2018-12-19T20:06:10.221Z,15.76
2018-12-19T20:08:46.109Z,15.84
2018-12-19T20:11:23.234Z,15.60
2018-12-19T20:14:03.105Z,15.88
2018-12-19T20:17:10.929Z,15.78
2018-12-19T20:19:50.178Z,15.59
2018-12-19T20:22:26.151Z,15.46
2018-12-19T20:25:08.006Z,15.34
2018-12-19T20:27:42.040Z,15.40
2018-12-19T20:30:26.979Z,15.43
2018-12-19T20:33:10.374Z,15.37
2018-12-19T20:35:51.247Z,15.37
2018-12-19T20:38:26.600Z,15.38
2018-12-19T20:41:03.027Z,15.35
2018-12-19T20:43:40.136Z,15.26
2018-12-19T20:46:13.701Z,15.15
2018-12-19T20:48:52.782Z,15.17
2018-12-19T20:51:29.584Z,14.81
2018-12-19T20:54:08.419Z,14.67
2018-12-19T20:56:44.204Z,14.53
2018-12-19T20:59:16.730Z,14.72
2018-12-19T21:01:54.153Z,14.55
2018-12-19T21:04:28.314Z,15.06
2018-12-19T21:07:04.646Z,15.04
2018-12-19T21:09:39.412Z,15.07
2018-12-19T21:12:16.867Z,14.96
2018-12-19T21:14:56.242Z,14.93
2018-12-19T21:17:38.915Z,14.92
2018-12-19T21:20:14.104Z,14.80
2018-12-19T21:22:55.251Z,14.85
2018-12-19T21:25:37.562Z,14.83
2018-12-19T21:28:15.649Z,14.89
2018-12-19T21:30:53.383Z,15.05
2018-12-19T21:33:38.724Z,15.25
2018-12-19T21:36:26.315Z,15.19
2018-12-19T21:39:04.307Z,15.14
2018-12-19T21:41:39.769Z,15.06
2018-12-19T21:44:13.700Z,15.04
2018-12-19T21:46:51.756Z,15.02
2018-12-19T21:49:28.371Z,14.95
2018-12-19T21:52:07.539Z,14.95
2018-12-19T21:57:38.358Z,14.90
2018-12-19T22:00:23.247Z,14.91
2018-12-19T22:03:03.160Z,14.95
2018-12-19T22:05:41.022Z,15.00
2018-12-19T22:08:18.522Z,14.81
2018-12-19T22:10:53.396Z,14.99
2018-12-19T22:13:33.176Z,14.96
2018-12-19T22:16:10.845Z,15.09
2018-12-19T22:18:55.899Z,15.06
2018-12-19T22:21:32.868Z,15.23
2018-12-19T22:24:06.995Z,15.28
2018-12-19T22:26:43.147Z,15.26
2018-12-19T22:29:24.716Z,15.36
2018-12-19T22:31:57.429Z,15.51
2018-12-19T22:34:38.448Z,15.46
2018-12-19T22:37:16.771Z,15.50
2018-12-19T22:39:55.499Z,15.19
2018-12-19T22:42:38.302Z,15.04
2018-12-19T22:45:18.580Z,14.84
2018-12-19T22:47:53.655Z,14.75
2018-12-19T22:50:36.158Z,14.81
2018-12-19T22:53:21.607Z,14.93
2018-12-19T22:56:04.324Z,14.95
2018-12-19T22:58:38.703Z,14.92
2018-12-19T23:01:16.861Z,15.01
2018-12-19T23:03:57.552Z,14.86
2018-12-19T23:06:40.871Z,15.05
2018-12-19T23:09:15.820Z,15.30
2018-12-19T23:11:56.811Z,15.38
2018-12-19T23:14:31.560Z,15.61
2018-12-19T23:17:10.915Z,15.69
2018-12-19T23:19:44.973Z,15.57
2018-12-19T23:22:19.873Z,15.38
2018-12-19T23:24:55.523Z,15.38
2018-12-19T23:27:36.892Z,15.55
2018-12-19T23:30:14.417Z,15.79
2018-12-19T23:32:46.598Z,15.80
2018-12-19T23:35:26.781Z,15.87
2018-12-19T23:38:04.948Z,15.70
2018-12-19T23:40:40.384Z,15.61
2018-12-19T23:43:18.448Z,15.59
2018-12-19T23:45:51.848Z,15.57
2018-12-19T23:48:25.077Z,15.67
2018-12-19T23:51:01.746Z,15.59
2018-12-19T23:53:38.931Z,15.28
2018-12-19T23:56:17.718Z,14.89
2018-12-19T23:58:53.975Z,14.63
